sensor_id;sensor_type;location;lat;lon;timestamp;pressure;altitude;pressure_sealevel;temperature
65316;BMP280;51920;53.952;10.292;2023-05-10T00:01:48;100512.69;;;14.06
65316;BMP280;51920;53.952;10.292;2023-05-10T00:04:14;100511.50;;;14.07
65316;BMP280;51920;53.952;10.292;2023-05-10T00:06:41;100517.72;;;14.07
65316;BMP280;51920;53.952;10.292;2023-05-10T00:09:08;100517.88;;;13.96
65316;BMP280;51920;53.952;10.292;2023-05-10T00:11:35;100518.19;;;14.02
65316;BMP280;51920;53.952;10.292;2023-05-10T00:14:02;100509.31;;;13.98
65316;BMP280;51920;53.952;10.292;2023-05-10T00:16:29;100500.09;;;13.85
65316;BMP280;51920;53.952;10.292;2023-05-10T00:18:56;100504.47;;;13.79
65316;BMP280;51920;53.952;10.292;2023-05-10T00:21:23;100500.06;;;13.88
65316;BMP280;51920;53.952;10.292;2023-05-10T00:23:50;100492.72;;;13.85
65316;BMP280;51920;53.952;10.292;2023-05-10T00:26:16;100485.50;;;13.71
65316;BMP280;51920;53.952;10.292;2023-05-10T00:28:48;100491.34;;;13.70
65316;BMP280;51920;53.952;10.292;2023-05-10T00:31:17;100490.97;;;13.68
65316;BMP280;51920;53.952;10.292;2023-05-10T00:33:43;100491.09;;;13.57
65316;BMP280;51920;53.952;10.292;2023-05-10T00:36:11;100483.31;;;13.59
65316;BMP280;51920;53.952;10.292;2023-05-10T00:38:38;100473.19;;;13.60
65316;BMP280;51920;53.952;10.292;2023-05-10T00:41:04;100477.19;;;13.48
65316;BMP280;51920;53.952;10.292;2023-05-10T00:43:33;100481.13;;;13.43
65316;BMP280;51920;53.952;10.292;2023-05-10T00:46:00;100477.97;;;13.48
65316;BMP280;51920;53.952;10.292;2023-05-10T00:48:28;100474.84;;;13.50
65316;BMP280;51920;53.952;10.292;2023-05-10T00:50:55;100481.19;;;13.36
65316;BMP280;51920;53.952;10.292;2023-05-10T00:53:23;100464.13;;;13.32
65316;BMP280;51920;53.952;10.292;2023-05-10T00:55:51;100470.47;;;13.22
65316;BMP280;51920;53.952;10.292;2023-05-10T00:58:18;100457.22;;;13.24
65316;BMP280;51920;53.952;10.292;2023-05-10T01:00:46;100462.00;;;13.13
65316;BMP280;51920;53.952;10.292;2023-05-10T01:03:12;100462.72;;;13.20
65316;BMP280;51920;53.952;10.292;2023-05-10T01:05:40;100457.34;;;13.13
65316;BMP280;51920;53.952;10.292;2023-05-10T01:08:07;100452.72;;;13.06
65316;BMP280;51920;53.952;10.292;2023-05-10T01:10:35;100444.06;;;13.19
65316;BMP280;51920;53.952;10.292;2023-05-10T01:13:02;100449.06;;;13.24
65316;BMP280;51920;53.952;10.292;2023-05-10T01:15:30;100447.22;;;13.14
65316;BMP280;51920;53.952;10.292;2023-05-10T01:17:57;100454.28;;;13.07
65316;BMP280;51920;53.952;10.292;2023-05-10T01:20:27;100437.13;;;13.14
65316;BMP280;51920;53.952;10.292;2023-05-10T01:23:14;100449.69;;;12.97
65316;BMP280;51920;53.952;10.292;2023-05-10T01:30:54;100443.88;;;12.99
65316;BMP280;51920;53.952;10.292;2023-05-10T01:33:39;100441.28;;;12.84
65316;BMP280;51920;53.952;10.292;2023-05-10T01:41:47;100432.66;;;12.89
65316;BMP280;51920;53.952;10.292;2023-05-10T01:44:20;100450.06;;;12.99
65316;BMP280;51920;53.952;10.292;2023-05-10T01:47:03;100452.41;;;13.01
65316;BMP280;51920;53.952;10.292;2023-05-10T01:49:36;100445.06;;;12.94
65316;BMP280;51920;53.952;10.292;2023-05-10T01:52:09;100445.97;;;12.80
65316;BMP280;51920;53.952;10.292;2023-05-10T01:54:38;100450.31;;;12.71
65316;BMP280;51920;53.952;10.292;2023-05-10T01:57:08;100436.41;;;12.61
65316;BMP280;51920;53.952;10.292;2023-05-10T01:59:39;100446.41;;;12.72
65316;BMP280;51920;53.952;10.292;2023-05-10T02:02:08;100441.28;;;12.84
65316;BMP280;51920;53.952;10.292;2023-05-10T02:04:41;100440.16;;;12.75
65316;BMP280;51920;53.952;10.292;2023-05-10T02:07:09;100450.31;;;12.71
65316;BMP280;51920;53.952;10.292;2023-05-10T02:09:36;100446.81;;;12.70
65316;BMP280;51920;53.952;10.292;2023-05-10T02:12:05;100448.06;;;12.58
65316;BMP280;51920;53.952;10.292;2023-05-10T02:14:35;100442.59;;;12.62
65316;BMP280;51920;53.952;10.292;2023-05-10T02:17:04;100449.19;;;12.64
65316;BMP280;51920;53.952;10.292;2023-05-10T02:19:32;100449.97;;;12.61
65316;BMP280;51920;53.952;10.292;2023-05-10T02:22:00;100448.44;;;12.60
65316;BMP280;51920;53.952;10.292;2023-05-10T02:24:28;100441.94;;;12.43
65316;BMP280;51920;53.952;10.292;2023-05-10T02:26:56;100449.28;;;12.50
65316;BMP280;51920;53.952;10.292;2023-05-10T02:29:24;100437.63;;;12.53
65316;BMP280;51920;53.952;10.292;2023-05-10T02:31:54;100435.31;;;12.48
65316;BMP280;51920;53.952;10.292;2023-05-10T02:34:23;100436.81;;;12.56
65316;BMP280;51920;53.952;10.292;2023-05-10T02:36:53;100433.31;;;12.59
65316;BMP280;51920;53.952;10.292;2023-05-10T02:39:21;100437.31;;;12.40
65316;BMP280;51920;53.952;10.292;2023-05-10T02:41:48;100438.47;;;12.43
65316;BMP280;51920;53.952;10.292;2023-05-10T02:44:18;100435.38;;;12.41
65316;BMP280;51920;53.952;10.292;2023-05-10T02:46:46;100439.66;;;12.42
65316;BMP280;51920;53.952;10.292;2023-05-10T02:49:14;100430.28;;;12.46
65316;BMP280;51920;53.952;10.292;2023-05-10T02:51:55;100433.06;;;12.36
65316;BMP280;51920;53.952;10.292;2023-05-10T02:54:30;100441.66;;;12.31
65316;BMP280;51920;53.952;10.292;2023-05-10T02:57:00;100426.97;;;12.24
65316;BMP280;51920;53.952;10.292;2023-05-10T02:59:30;100428.88;;;12.28
65316;BMP280;51920;53.952;10.292;2023-05-10T03:01:59;100432.34;;;12.28
65316;BMP280;51920;53.952;10.292;2023-05-10T03:04:26;100427.69;;;12.29
65316;BMP280;51920;53.952;10.292;2023-05-10T03:06:55;100424.25;;;12.24
65316;BMP280;51920;53.952;10.292;2023-05-10T03:09:22;100428.03;;;12.38
65316;BMP280;51920;53.952;10.292;2023-05-10T03:14:45;100423.78;;;12.33
65316;BMP280;51920;53.952;10.292;2023-05-10T03:17:25;100424.59;;;12.27
65316;BMP280;51920;53.952;10.292;2023-05-10T03:19:58;100419.84;;;12.41
65316;BMP280;51920;53.952;10.292;2023-05-10T03:22:32;100421.38;;;12.46
65316;BMP280;51920;53.952;10.292;2023-05-10T03:25:05;100421.88;;;12.27
65316;BMP280;51920;53.952;10.292;2023-05-10T03:27:35;100431.63;;;12.13
65316;BMP280;51920;53.952;10.292;2023-05-10T03:30:05;100426.63;;;12.15
65316;BMP280;51920;53.952;10.292;2023-05-10T03:32:32;100426.16;;;12.20
65316;BMP280;51920;53.952;10.292;2023-05-10T03:35:09;100435.16;;;12.17
65316;BMP280;51920;53.952;10.292;2023-05-10T03:37:36;100431.72;;;11.99
65316;BMP280;51920;53.952;10.292;2023-05-10T03:40:05;100423.94;;;12.08
65316;BMP280;51920;53.952;10.292;2023-05-10T03:42:34;100423.19;;;11.97
65316;BMP280;51920;53.952;10.292;2023-05-10T03:45:01;100423.25;;;11.86
65316;BMP280;51920;53.952;10.292;2023-05-10T03:47:28;100419.41;;;11.80
65316;BMP280;51920;53.952;10.292;2023-05-10T03:49:57;100420.56;;;11.79
65316;BMP280;51920;53.952;10.292;2023-05-10T03:52:24;100420.19;;;11.80
65316;BMP280;51920;53.952;10.292;2023-05-10T03:54:50;100421.72;;;11.74
65316;BMP280;51920;53.952;10.292;2023-05-10T03:57:17;100417.47;;;11.80
65316;BMP280;51920;53.952;10.292;2023-05-10T03:59:44;100418.63;;;11.76
65316;BMP280;51920;53.952;10.292;2023-05-10T04:02:11;100417.75;;;12.00
65316;BMP280;51920;53.952;10.292;2023-05-10T04:04:38;100410.09;;;11.81
65316;BMP280;51920;53.952;10.292;2023-05-10T04:07:05;100417.47;;;11.77
65316;BMP280;51920;53.952;10.292;2023-05-10T04:09:33;100421.72;;;11.81
65316;BMP280;51920;53.952;10.292;2023-05-10T04:12:00;100426.34;;;11.85
65316;BMP280;51920;53.952;10.292;2023-05-10T04:14:29;100416.28;;;11.81
65316;BMP280;51920;53.952;10.292;2023-05-10T04:16:56;100425.59;;;11.88
65316;BMP280;51920;53.952;10.292;2023-05-10T04:19:22;100418.97;;;11.89
65316;BMP280;51920;53.952;10.292;2023-05-10T04:21:49;100418.56;;;11.94
65316;BMP280;51920;53.952;10.292;2023-05-10T04:24:16;100420.81;;;12.06
65316;BMP280;51920;53.952;10.292;2023-05-10T04:26:43;100416.09;;;12.24
65316;BMP280;51920;53.952;10.292;2023-05-10T04:29:09;100419.88;;;12.34
65316;BMP280;51920;53.952;10.292;2023-05-10T04:31:36;100416.38;;;12.37
65316;BMP280;51920;53.952;10.292;2023-05-10T04:34:03;100426.34;;;12.55
65316;BMP280;51920;53.952;10.292;2023-05-10T04:36:30;100416.63;;;12.54
65316;BMP280;51920;53.952;10.292;2023-05-10T04:38:56;100420.84;;;12.65
65316;BMP280;51920;53.952;10.292;2023-05-10T04:41:24;100426.22;;;12.73
65316;BMP280;51920;53.952;10.292;2023-05-10T04:43:51;100423.03;;;12.81
65316;BMP280;51920;53.952;10.292;2023-05-10T04:46:18;100429.59;;;12.87
65316;BMP280;51920;53.952;10.292;2023-05-10T04:48:45;100425.59;;;12.99
65316;BMP280;51920;53.952;10.292;2023-05-10T04:51:12;100421.78;;;12.93
65316;BMP280;51920;53.952;10.292;2023-05-10T04:53:39;100421.69;;;13.04
65316;BMP280;51920;53.952;10.292;2023-05-10T04:56:06;100420.78;;;13.14
65316;BMP280;51920;53.952;10.292;2023-05-10T04:58:33;100428.59;;;13.08
65316;BMP280;51920;53.952;10.292;2023-05-10T05:01:07;100430.22;;;13.06
65316;BMP280;51920;53.952;10.292;2023-05-10T05:03:34;100429.94;;;12.93
65316;BMP280;51920;53.952;10.292;2023-05-10T05:06:02;100425.59;;;12.99
65316;BMP280;51920;53.952;10.292;2023-05-10T05:08:29;100423.16;;;13.08
65316;BMP280;51920;53.952;10.292;2023-05-10T05:10:56;100424.09;;;12.95
65316;BMP280;51920;53.952;10.292;2023-05-10T05:13:23;100434.84;;;13.05
65316;BMP280;51920;53.952;10.292;2023-05-10T05:15:50;100434.53;;;13.00
65316;BMP280;51920;53.952;10.292;2023-05-10T05:18:17;100431.03;;;12.99
65316;BMP280;51920;53.952;10.292;2023-05-10T05:20:43;100427.88;;;13.04
65316;BMP280;51920;53.952;10.292;2023-05-10T05:23:10;100430.91;;;13.14
65316;BMP280;51920;53.952;10.292;2023-05-10T05:25:37;100427.06;;;13.45
65316;BMP280;51920;53.952;10.292;2023-05-10T05:28:04;100419.88;;;13.62
65316;BMP280;51920;53.952;10.292;2023-05-10T05:30:30;100423.53;;;14.10
65316;BMP280;51920;53.952;10.292;2023-05-10T05:32:57;100427.00;;;14.37
65316;BMP280;51920;53.952;10.292;2023-05-10T05:35:24;100426.31;;;14.80
65316;BMP280;51920;53.952;10.292;2023-05-10T05:37:51;100429.72;;;14.88
65316;BMP280;51920;53.952;10.292;2023-05-10T05:40:18;100433.47;;;14.94
65316;BMP280;51920;53.952;10.292;2023-05-10T05:42:45;100433.94;;;15.33
65316;BMP280;51920;53.952;10.292;2023-05-10T05:45:11;100436.41;;;15.47
65316;BMP280;51920;53.952;10.292;2023-05-10T05:47:39;100439.13;;;15.47
65316;BMP280;51920;53.952;10.292;2023-05-10T05:50:06;100428.84;;;15.35
65316;BMP280;51920;53.952;10.292;2023-05-10T05:52:33;100435.97;;;15.85
65316;BMP280;51920;53.952;10.292;2023-05-10T05:55:00;100444.16;;;15.85
65316;BMP280;51920;53.952;10.292;2023-05-10T05:57:27;100434.78;;;15.69
65316;BMP280;51920;53.952;10.292;2023-05-10T05:59:54;100434.19;;;15.78
65316;BMP280;51920;53.952;10.292;2023-05-10T06:02:21;100435.72;;;15.79
65316;BMP280;51920;53.952;10.292;2023-05-10T06:04:48;100432.63;;;15.77
65316;BMP280;51920;53.952;10.292;2023-05-10T06:07:15;100429.25;;;15.33
65316;BMP280;51920;53.952;10.292;2023-05-10T06:09:41;100435.34;;;15.41
65316;BMP280;51920;53.952;10.292;2023-05-10T06:12:08;100428.03;;;15.14
65316;BMP280;51920;53.952;10.292;2023-05-10T06:14:35;100420.91;;;15.20
65316;BMP280;51920;53.952;10.292;2023-05-10T06:17:02;100431.28;;;15.09
65316;BMP280;51920;53.952;10.292;2023-05-10T06:19:31;100432.59;;;15.41
65316;BMP280;51920;53.952;10.292;2023-05-10T06:21:58;100434.53;;;15.80
65316;BMP280;51920;53.952;10.292;2023-05-10T06:24:25;100438.31;;;16.03
65316;BMP280;51920;53.952;10.292;2023-05-10T06:26:53;100446.97;;;16.18
65316;BMP280;51920;53.952;10.292;2023-05-10T06:29:20;100442.16;;;16.38
65316;BMP280;51920;53.952;10.292;2023-05-10T06:31:46;100438.91;;;16.43
65316;BMP280;51920;53.952;10.292;2023-05-10T06:34:14;100440.81;;;16.46
65316;BMP280;51920;53.952;10.292;2023-05-10T06:36:41;100440.69;;;16.21
65316;BMP280;51920;53.952;10.292;2023-05-10T06:39:07;100433.63;;;16.52
65316;BMP280;51920;53.952;10.292;2023-05-10T06:41:34;100444.13;;;16.54
65316;BMP280;51920;53.952;10.292;2023-05-10T06:44:01;100438.19;;;16.88
65316;BMP280;51920;53.952;10.292;2023-05-10T06:46:27;100437.13;;;17.28
65316;BMP280;51920;53.952;10.292;2023-05-10T06:48:54;100438.59;;;17.45
65316;BMP280;51920;53.952;10.292;2023-05-10T06:51:21;100442.94;;;17.42
65316;BMP280;51920;53.952;10.292;2023-05-10T06:53:48;100453.84;;;17.84
65316;BMP280;51920;53.952;10.292;2023-05-10T06:56:15;100446.84;;;17.71
65316;BMP280;51920;53.952;10.292;2023-05-10T06:58:41;100444.19;;;17.67
65316;BMP280;51920;53.952;10.292;2023-05-10T07:01:08;100436.00;;;18.05
65316;BMP280;51920;53.952;10.292;2023-05-10T07:03:35;100444.44;;;17.85
65316;BMP280;51920;53.952;10.292;2023-05-10T07:06:03;100440.78;;;17.63
65316;BMP280;51920;53.952;10.292;2023-05-10T07:08:33;100437.28;;;17.50
65316;BMP280;51920;53.952;10.292;2023-05-10T07:11:02;100437.19;;;18.04
65316;BMP280;51920;53.952;10.292;2023-05-10T07:13:33;100437.19;;;17.91
65316;BMP280;51920;53.952;10.292;2023-05-10T07:16:00;100436.50;;;18.13
65316;BMP280;51920;53.952;10.292;2023-05-10T07:18:28;100435.94;;;18.18
65316;BMP280;51920;53.952;10.292;2023-05-10T07:20:56;100433.25;;;18.05
65316;BMP280;51920;53.952;10.292;2023-05-10T07:23:23;100431.91;;;17.97
65316;BMP280;51920;53.952;10.292;2023-05-10T07:25:50;100447.59;;;17.97
65316;BMP280;51920;53.952;10.292;2023-05-10T07:28:21;100438.47;;;17.87
65316;BMP280;51920;53.952;10.292;2023-05-10T07:30:48;100439.06;;;17.95
65316;BMP280;51920;53.952;10.292;2023-05-10T07:33:15;100445.41;;;18.17
65316;BMP280;51920;53.952;10.292;2023-05-10T07:35:43;100448.81;;;18.08
65316;BMP280;51920;53.952;10.292;2023-05-10T07:38:09;100452.38;;;18.31
65316;BMP280;51920;53.952;10.292;2023-05-10T07:40:37;100449.13;;;17.98
65316;BMP280;51920;53.952;10.292;2023-05-10T07:43:04;100442.31;;;18.15
65316;BMP280;51920;53.952;10.292;2023-05-10T07:45:31;100437.50;;;18.19
65316;BMP280;51920;53.952;10.292;2023-05-10T07:47:58;100447.56;;;18.22
65316;BMP280;51920;53.952;10.292;2023-05-10T07:50:25;100453.19;;;17.93
65316;BMP280;51920;53.952;10.292;2023-05-10T07:52:52;100448.56;;;18.03
65316;BMP280;51920;53.952;10.292;2023-05-10T07:55:19;100445.81;;;18.03
65316;BMP280;51920;53.952;10.292;2023-05-10T07:57:47;100447.91;;;18.11
65316;BMP280;51920;53.952;10.292;2023-05-10T08:00:18;100456.38;;;18.17
65316;BMP280;51920;53.952;10.292;2023-05-10T08:02:45;100457.88;;;18.18
65316;BMP280;51920;53.952;10.292;2023-05-10T08:05:12;100455.06;;;18.09
65316;BMP280;51920;53.952;10.292;2023-05-10T08:07:39;100462.72;;;17.88
65316;BMP280;51920;53.952;10.292;2023-05-10T08:10:07;100468.75;;;17.96
65316;BMP280;51920;53.952;10.292;2023-05-10T08:12:34;100468.59;;;18.25
65316;BMP280;51920;53.952;10.292;2023-05-10T08:15:01;100466.41;;;18.46
65316;BMP280;51920;53.952;10.292;2023-05-10T08:17:27;100459.72;;;18.81
65316;BMP280;51920;53.952;10.292;2023-05-10T08:19:54;100459.00;;;19.12
65316;BMP280;51920;53.952;10.292;2023-05-10T08:22:20;100458.22;;;19.12
65316;BMP280;51920;53.952;10.292;2023-05-10T08:24:47;100464.53;;;19.21
65316;BMP280;51920;53.952;10.292;2023-05-10T08:27:14;100468.88;;;19.32
65316;BMP280;51920;53.952;10.292;2023-05-10T08:29:41;100463.25;;;19.35
65316;BMP280;51920;53.952;10.292;2023-05-10T08:32:11;100473.22;;;19.42
65316;BMP280;51920;53.952;10.292;2023-05-10T08:34:38;100471.06;;;19.37
65316;BMP280;51920;53.952;10.292;2023-05-10T08:37:05;100468.06;;;19.53
65316;BMP280;51920;53.952;10.292;2023-05-10T08:39:35;100467.16;;;19.56
65316;BMP280;51920;53.952;10.292;2023-05-10T08:42:04;100462.25;;;19.82
65316;BMP280;51920;53.952;10.292;2023-05-10T08:44:36;100469.22;;;20.24
65316;BMP280;51920;53.952;10.292;2023-05-10T08:47:05;100466.75;;;20.07
65316;BMP280;51920;53.952;10.292;2023-05-10T08:49:33;100470.78;;;20.34
65316;BMP280;51920;53.952;10.292;2023-05-10T08:52:04;100470.94;;;20.49
65316;BMP280;51920;53.952;10.292;2023-05-10T08:54:32;100469.28;;;20.33
65316;BMP280;51920;53.952;10.292;2023-05-10T08:56:59;100463.44;;;20.12
65316;BMP280;51920;53.952;10.292;2023-05-10T08:59:27;100483.16;;;20.48
65316;BMP280;51920;53.952;10.292;2023-05-10T09:01:56;100479.16;;;20.30
65316;BMP280;51920;53.952;10.292;2023-05-10T09:04:24;100470.94;;;20.76
65316;BMP280;51920;53.952;10.292;2023-05-10T09:06:51;100482.88;;;20.64
65316;BMP280;51920;53.952;10.292;2023-05-10T09:09:20;100474.75;;;21.06
65316;BMP280;51920;53.952;10.292;2023-05-10T09:11:47;100482.41;;;21.02
65316;BMP280;51920;53.952;10.292;2023-05-10T09:14:15;100479.03;;;21.07
65316;BMP280;51920;53.952;10.292;2023-05-10T09:16:42;100483.75;;;21.07
65316;BMP280;51920;53.952;10.292;2023-05-10T09:19:09;100483.59;;;21.10
65316;BMP280;51920;53.952;10.292;2023-05-10T09:21:36;100489.25;;;21.16
65316;BMP280;51920;53.952;10.292;2023-05-10T09:24:07;100486.88;;;21.42
65316;BMP280;51920;53.952;10.292;2023-05-10T09:26:35;100496.63;;;21.10
65316;BMP280;51920;53.952;10.292;2023-05-10T09:29:03;100499.22;;;21.04
65316;BMP280;51920;53.952;10.292;2023-05-10T09:31:49;100492.66;;;20.74
65316;BMP280;51920;53.952;10.292;2023-05-10T09:34:31;100493.72;;;20.95
65316;BMP280;51920;53.952;10.292;2023-05-10T09:37:00;100490.34;;;20.82
65316;BMP280;51920;53.952;10.292;2023-05-10T09:39:35;100492.34;;;20.91
65316;BMP280;51920;53.952;10.292;2023-05-10T09:42:11;100495.09;;;21.09
65316;BMP280;51920;53.952;10.292;2023-05-10T09:44:38;100495.53;;;21.07
65316;BMP280;51920;53.952;10.292;2023-05-10T09:47:07;100505.00;;;21.25
65316;BMP280;51920;53.952;10.292;2023-05-10T09:49:34;100505.50;;;21.23
65316;BMP280;51920;53.952;10.292;2023-05-10T09:52:05;100514.09;;;21.59
65316;BMP280;51920;53.952;10.292;2023-05-10T09:54:32;100507.75;;;21.76
65316;BMP280;51920;53.952;10.292;2023-05-10T09:57:00;100509.06;;;22.38
65316;BMP280;51920;53.952;10.292;2023-05-10T09:59:28;100510.84;;;22.80
65316;BMP280;51920;53.952;10.292;2023-05-10T10:01:59;100510.00;;;22.74
65316;BMP280;51920;53.952;10.292;2023-05-10T10:04:26;100512.97;;;22.85
65316;BMP280;51920;53.952;10.292;2023-05-10T10:07:04;100513.75;;;23.01
65316;BMP280;51920;53.952;10.292;2023-05-10T10:09:32;100517.56;;;22.01
65316;BMP280;51920;53.952;10.292;2023-05-10T10:12:02;100518.63;;;21.80
65316;BMP280;51920;53.952;10.292;2023-05-10T10:14:30;100514.34;;;21.27
65316;BMP280;51920;53.952;10.292;2023-05-10T10:17:00;100509.25;;;21.35
65316;BMP280;51920;53.952;10.292;2023-05-10T10:19:30;100508.97;;;21.24
65316;BMP280;51920;53.952;10.292;2023-05-10T10:22:00;100509.63;;;21.09
65316;BMP280;51920;53.952;10.292;2023-05-10T10:24:26;100513.91;;;21.10
65316;BMP280;51920;53.952;10.292;2023-05-10T10:26:57;100508.56;;;20.79
65316;BMP280;51920;53.952;10.292;2023-05-10T10:30:07;100510.25;;;20.77
65316;BMP280;51920;53.952;10.292;2023-05-10T10:35:33;100512.09;;;20.89
65316;BMP280;51920;53.952;10.292;2023-05-10T10:38:00;100512.06;;;21.17
65316;BMP280;51920;53.952;10.292;2023-05-10T10:40:32;100514.97;;;21.22
65316;BMP280;51920;53.952;10.292;2023-05-10T10:43:22;100516.34;;;21.18
65316;BMP280;51920;53.952;10.292;2023-05-10T10:46:13;100510.84;;;20.99
65316;BMP280;51920;53.952;10.292;2023-05-10T10:48:43;100513.59;;;20.72
65316;BMP280;51920;53.952;10.292;2023-05-10T10:51:14;100514.19;;;20.39
65316;BMP280;51920;53.952;10.292;2023-05-10T10:53:41;100519.06;;;20.26
65316;BMP280;51920;53.952;10.292;2023-05-10T10:56:09;100512.97;;;20.40
65316;BMP280;51920;53.952;10.292;2023-05-10T10:58:38;100524.91;;;20.37
65316;BMP280;51920;53.952;10.292;2023-05-10T11:01:18;100525.78;;;20.25
65316;BMP280;51920;53.952;10.292;2023-05-10T11:04:17;100525.91;;;20.12
65316;BMP280;51920;53.952;10.292;2023-05-10T11:06:44;100531.91;;;19.88
65316;BMP280;51920;53.952;10.292;2023-05-10T11:09:12;100524.09;;;19.78
65316;BMP280;51920;53.952;10.292;2023-05-10T11:11:51;100528.50;;;19.75
65316;BMP280;51920;53.952;10.292;2023-05-10T11:14:22;100533.31;;;19.62
65316;BMP280;51920;53.952;10.292;2023-05-10T11:16:49;100530.69;;;19.58
65316;BMP280;51920;53.952;10.292;2023-05-10T11:19:16;100540.16;;;19.57
65316;BMP280;51920;53.952;10.292;2023-05-10T11:21:50;100543.03;;;19.32
65316;BMP280;51920;53.952;10.292;2023-05-10T11:24:22;100550.13;;;19.20
65316;BMP280;51920;53.952;10.292;2023-05-10T11:26:50;100549.72;;;18.87
65316;BMP280;51920;53.952;10.292;2023-05-10T11:29:17;100548.63;;;18.71
65316;BMP280;51920;53.952;10.292;2023-05-10T11:31:45;100557.00;;;18.55
65316;BMP280;51920;53.952;10.292;2023-05-10T11:34:23;100570.63;;;18.46
65316;BMP280;51920;53.952;10.292;2023-05-10T11:36:52;100569.31;;;18.38
65316;BMP280;51920;53.952;10.292;2023-05-10T11:39:21;100580.72;;;18.23
65316;BMP280;51920;53.952;10.292;2023-05-10T11:41:49;100574.34;;;18.01
65316;BMP280;51920;53.952;10.292;2023-05-10T11:44:16;100576.94;;;17.91
65316;BMP280;51920;53.952;10.292;2023-05-10T11:46:43;100586.09;;;17.72
65316;BMP280;51920;53.952;10.292;2023-05-10T11:49:13;100581.47;;;17.56
65316;BMP280;51920;53.952;10.292;2023-05-10T11:51:40;100592.31;;;17.60
65316;BMP280;51920;53.952;10.292;2023-05-10T11:54:10;100599.06;;;17.26
65316;BMP280;51920;53.952;10.292;2023-05-10T11:56:38;100595.13;;;17.27
65316;BMP280;51920;53.952;10.292;2023-05-10T11:59:05;100592.91;;;17.22
65316;BMP280;51920;53.952;10.292;2023-05-10T12:01:32;100600.44;;;17.01
65316;BMP280;51920;53.952;10.292;2023-05-10T12:04:00;100613.47;;;16.81
65316;BMP280;51920;53.952;10.292;2023-05-10T12:06:30;100620.78;;;16.68
65316;BMP280;51920;53.952;10.292;2023-05-10T12:08:58;100611.75;;;16.34
65316;BMP280;51920;53.952;10.292;2023-05-10T12:11:25;100619.75;;;16.05
65316;BMP280;51920;53.952;10.292;2023-05-10T12:13:54;100621.28;;;16.06
65316;BMP280;51920;53.952;10.292;2023-05-10T12:16:24;100623.41;;;16.19
65316;BMP280;51920;53.952;10.292;2023-05-10T12:18:52;100622.53;;;16.22
65316;BMP280;51920;53.952;10.292;2023-05-10T12:21:20;100629.53;;;16.26
65316;BMP280;51920;53.952;10.292;2023-05-10T12:23:51;100626.97;;;16.16
65316;BMP280;51920;53.952;10.292;2023-05-10T12:26:21;100627.41;;;16.14
65316;BMP280;51920;53.952;10.292;2023-05-10T12:28:49;100630.56;;;15.93
65316;BMP280;51920;53.952;10.292;2023-05-10T12:31:15;100637.81;;;15.99
65316;BMP280;51920;53.952;10.292;2023-05-10T12:33:43;100640.41;;;16.06
65316;BMP280;51920;53.952;10.292;2023-05-10T12:36:12;100644.34;;;16.05
65316;BMP280;51920;53.952;10.292;2023-05-10T12:38:41;100645.59;;;16.01
65316;BMP280;51920;53.952;10.292;2023-05-10T12:41:17;100644.34;;;16.05
65316;BMP280;51920;53.952;10.292;2023-05-10T12:43:44;100647.00;;;15.89
65316;BMP280;51920;53.952;10.292;2023-05-10T12:46:16;100647.38;;;15.91
65316;BMP280;51920;53.952;10.292;2023-05-10T12:48:44;100654.66;;;15.98
65316;BMP280;51920;53.952;10.292;2023-05-10T12:51:28;100656.81;;;16.06
65316;BMP280;51920;53.952;10.292;2023-05-10T12:53:56;100659.50;;;16.10
65316;BMP280;51920;53.952;10.292;2023-05-10T12:56:22;100664.69;;;16.04
65316;BMP280;51920;53.952;10.292;2023-05-10T12:58:49;100661.47;;;16.09
65316;BMP280;51920;53.952;10.292;2023-05-10T13:01:16;100668.69;;;16.20
65316;BMP280;51920;53.952;10.292;2023-05-10T13:03:42;100669.31;;;16.07
65316;BMP280;51920;53.952;10.292;2023-05-10T13:06:09;100668.81;;;16.12
65316;BMP280;51920;53.952;10.292;2023-05-10T13:08:36;100673.78;;;16.18
65316;BMP280;51920;53.952;10.292;2023-05-10T13:11:03;100674.91;;;16.20
65316;BMP280;51920;53.952;10.292;2023-05-10T13:13:30;100673.28;;;16.23
65316;BMP280;51920;53.952;10.292;2023-05-10T13:15:56;100666.22;;;16.25
65316;BMP280;51920;53.952;10.292;2023-05-10T13:18:23;100673.34;;;16.39
65316;BMP280;51920;53.952;10.292;2023-05-10T13:20:50;100669.16;;;16.34
65316;BMP280;51920;53.952;10.292;2023-05-10T13:23:17;100674.91;;;16.40
65316;BMP280;51920;53.952;10.292;2023-05-10T13:25:44;100672.19;;;16.40
65316;BMP280;51920;53.952;10.292;2023-05-10T13:28:10;100675.78;;;16.53
65316;BMP280;51920;53.952;10.292;2023-05-10T13:30:37;100680.97;;;16.68
65316;BMP280;51920;53.952;10.292;2023-05-10T13:33:04;100673.31;;;16.59
65316;BMP280;51920;53.952;10.292;2023-05-10T13:35:30;100671.72;;;16.62
65316;BMP280;51920;53.952;10.292;2023-05-10T13:37:57;100681.28;;;16.70
65316;BMP280;51920;53.952;10.292;2023-05-10T13:40:24;100675.72;;;16.57
65316;BMP280;51920;53.952;10.292;2023-05-10T13:42:51;100679.78;;;16.49
65316;BMP280;51920;53.952;10.292;2023-05-10T13:45:17;100677.34;;;16.54
65316;BMP280;51920;53.952;10.292;2023-05-10T13:47:44;100682.53;;;16.69
65316;BMP280;51920;53.952;10.292;2023-05-10T13:50:11;100681.50;;;16.79
65316;BMP280;51920;53.952;10.292;2023-05-10T13:52:38;100686.81;;;16.86
65316;BMP280;51920;53.952;10.292;2023-05-10T13:55:05;100675.44;;;16.88
65316;BMP280;51920;53.952;10.292;2023-05-10T13:57:32;100682.19;;;16.83
65316;BMP280;51920;53.952;10.292;2023-05-10T14:00:01;100683.47;;;16.78
65316;BMP280;51920;53.952;10.292;2023-05-10T14:02:33;100673.09;;;16.70
65316;BMP280;51920;53.952;10.292;2023-05-10T14:05:00;100671.41;;;16.76
65316;BMP280;51920;53.952;10.292;2023-05-10T14:07:27;100679.38;;;16.87
65316;BMP280;51920;53.952;10.292;2023-05-10T14:09:54;100660.81;;;16.78